createdAt,value
2023-05-06T00:01:56.588Z,27.25
2023-05-06T00:04:28.628Z,35.53
2023-05-06T00:07:00.145Z,34.25
2023-05-06T00:09:33.504Z,36.63
2023-05-06T00:12:04.674Z,38.75
2023-05-06T00:14:36.194Z,42.08
2023-05-06T00:17:07.488Z,43.38
2023-05-06T00:19:38.552Z,41.45
2023-05-06T00:22:09.700Z,36.80
2023-05-06T00:24:40.880Z,40.78
2023-05-06T00:27:12.583Z,45.22
2023-05-06T00:29:47.715Z,44.90
2023-05-06T00:32:18.993Z,43.38
2023-05-06T00:34:50.334Z,17.70
2023-05-06T00:37:21.837Z,34.05
2023-05-06T00:39:53.004Z,40.50
2023-05-06T00:42:27.205Z,26.77
2023-05-06T00:44:58.365Z,37.33
2023-05-06T00:47:29.597Z,21.48
2023-05-06T00:50:00.853Z,39.45
2023-05-06T00:52:42.689Z,49.45
2023-05-06T00:57:46.600Z,51.47
2023-05-06T01:00:18.369Z,53.13
2023-05-06T01:02:49.935Z,67.28
2023-05-06T01:05:25.245Z,65.18
2023-05-06T01:08:02.416Z,61.25
2023-05-06T01:11:02.128Z,66.60
2023-05-06T01:13:51.374Z,70.35
2023-05-06T01:16:23.810Z,72.95
2023-05-06T01:19:08.495Z,80.25
2023-05-06T01:24:13.085Z,77.15
2023-05-06T01:26:45.509Z,77.70
2023-05-06T01:29:16.628Z,80.68
2023-05-06T01:31:48.507Z,77.13
2023-05-06T01:34:30.529Z,77.13
2023-05-06T01:37:03.187Z,76.80
2023-05-06T01:39:35.546Z,74.85
2023-05-06T01:42:08.261Z,76.38
2023-05-06T01:44:42.166Z,80.05
2023-05-06T01:47:14.716Z,89.22
2023-05-06T01:49:45.973Z,78.22
2023-05-06T01:52:24.609Z,83.53
2023-05-06T01:54:56.199Z,70.57
2023-05-06T01:57:28.947Z,71.05
2023-05-06T02:00:00.573Z,76.80
2023-05-06T02:02:31.937Z,70.32
2023-05-06T02:05:03.474Z,77.35
2023-05-06T02:07:34.467Z,67.85
2023-05-06T02:10:06.438Z,65.18
2023-05-06T02:15:10.884Z,64.22
2023-05-06T02:17:42.523Z,55.22
2023-05-06T02:20:13.951Z,44.08
2023-05-06T02:22:45.043Z,52.92
2023-05-06T02:25:16.166Z,42.97
2023-05-06T02:27:49.245Z,49.10
2023-05-06T02:30:25.334Z,52.13
2023-05-06T02:32:56.571Z,50.53
2023-05-06T02:35:32.488Z,50.03
2023-05-06T02:38:03.730Z,51.72
2023-05-06T02:40:36.486Z,27.92
2023-05-06T02:43:11.782Z,23.17
2023-05-06T02:45:42.929Z,34.33
2023-05-06T02:48:14.374Z,46.10
2023-05-06T02:50:45.897Z,36.15
2023-05-06T02:53:17.074Z,28.65
2023-05-06T02:55:48.491Z,41.70
2023-05-06T02:58:19.796Z,42.78
2023-05-06T03:00:51.191Z,26.60
2023-05-06T03:03:22.894Z,20.90
2023-05-06T03:05:53.969Z,35.60
2023-05-06T03:08:26.467Z,34.67
2023-05-06T03:11:02.069Z,25.73
2023-05-06T03:13:33.751Z,18.45
2023-05-06T03:16:06.053Z,26.02
2023-05-06T03:18:37.645Z,18.42
2023-05-06T03:21:09.155Z,31.65
2023-05-06T03:23:42.238Z,35.50
2023-05-06T03:26:14.237Z,32.60
2023-05-06T03:28:48.588Z,43.22
2023-05-06T03:31:22.959Z,40.13
2023-05-06T03:33:55.214Z,38.15
2023-05-06T03:36:26.966Z,26.60
2023-05-06T03:38:59.098Z,33.25
2023-05-06T03:41:30.776Z,36.35
2023-05-06T03:44:02.430Z,34.05
2023-05-06T03:46:34.996Z,35.88
2023-05-06T03:49:06.718Z,29.10
2023-05-06T03:51:39.348Z,35.08
2023-05-06T03:54:33.609Z,33.10
2023-05-06T03:57:06.858Z,27.92
2023-05-06T03:59:38.377Z,31.98
2023-05-06T04:02:10.345Z,38.38
2023-05-06T04:04:45.294Z,37.05
2023-05-06T04:07:16.956Z,32.20
2023-05-06T04:10:08.119Z,31.85
2023-05-06T04:12:39.637Z,23.42
2023-05-06T04:15:12.179Z,16.88
2023-05-06T04:17:45.415Z,28.30
2023-05-06T04:20:37.670Z,34.88
2023-05-06T04:23:13.904Z,33.95
2023-05-06T04:25:50.696Z,24.42
2023-05-06T04:28:24.078Z,37.28
2023-05-06T04:30:56.348Z,23.73
2023-05-06T04:33:34.918Z,31.40
2023-05-06T04:36:14.688Z,40.90
2023-05-06T04:39:05.510Z,28.25
2023-05-06T04:41:36.759Z,36.42
2023-05-06T04:44:21.079Z,19.73
2023-05-06T04:46:53.028Z,35.95
2023-05-06T04:49:24.267Z,27.73
2023-05-06T04:51:57.233Z,22.90
2023-05-06T04:54:29.288Z,40.03
2023-05-06T04:57:01.399Z,35.22
2023-05-06T04:59:35.113Z,36.22
2023-05-06T05:02:06.996Z,38.58
2023-05-06T05:04:38.403Z,42.50
2023-05-06T05:07:09.956Z,39.78
2023-05-06T05:09:41.723Z,34.67
2023-05-06T05:12:13.392Z,36.47
2023-05-06T05:14:49.095Z,37.83
2023-05-06T05:17:20.104Z,38.67
2023-05-06T05:19:54.358Z,35.77
2023-05-06T05:22:25.590Z,30.77
2023-05-06T05:24:56.892Z,37.30
2023-05-06T05:27:30.968Z,32.10
2023-05-06T05:30:03.419Z,38.97
2023-05-06T05:32:38.038Z,35.83
2023-05-06T05:35:12.124Z,37.58
2023-05-06T05:37:46.181Z,36.42
2023-05-06T05:40:18.168Z,22.30
2023-05-06T05:42:54.331Z,38.03
2023-05-06T05:45:51.685Z,36.88
2023-05-06T05:48:42.563Z,36.28
2023-05-06T05:51:33.551Z,37.10
2023-05-06T05:54:07.961Z,34.85
2023-05-06T05:56:44.283Z,40.28
2023-05-06T05:59:15.727Z,23.80
2023-05-06T06:04:19.900Z,24.95
2023-05-06T06:07:10.708Z,37.42
2023-05-06T06:09:48.152Z,36.83
2023-05-06T06:12:20.546Z,36.78
2023-05-06T06:14:58.921Z,28.80
2023-05-06T06:17:30.882Z,28.48
2023-05-06T06:20:02.843Z,34.80
2023-05-06T06:22:33.986Z,20.83
2023-05-06T06:25:05.024Z,20.58
2023-05-06T06:27:38.897Z,25.92
2023-05-06T06:30:31.233Z,29.27
2023-05-06T06:33:03.233Z,39.60
2023-05-06T06:35:34.876Z,36.35
2023-05-06T06:38:06.150Z,39.75
2023-05-06T06:40:38.739Z,32.83
2023-05-06T06:43:09.870Z,25.42
2023-05-06T06:46:19.373Z,33.70
2023-05-06T06:48:56.357Z,40.70
2023-05-06T06:51:34.048Z,39.70
2023-05-06T06:54:08.005Z,37.55
2023-05-06T06:56:39.180Z,38.45
2023-05-06T06:59:10.964Z,35.78
2023-05-06T07:01:43.424Z,38.88
2023-05-06T07:04:14.551Z,35.05
2023-05-06T07:06:45.906Z,39.17
2023-05-06T07:09:17.386Z,36.75
2023-05-06T07:11:48.767Z,36.13
2023-05-06T07:14:20.624Z,39.33
2023-05-06T07:16:53.315Z,36.42
2023-05-06T07:19:24.787Z,34.45
2023-05-06T07:22:16.017Z,36.92
2023-05-06T07:24:47.698Z,38.30
2023-05-06T07:27:18.824Z,37.40
2023-05-06T07:29:53.693Z,34.13
2023-05-06T07:32:26.076Z,33.60
2023-05-06T07:34:59.809Z,31.45
2023-05-06T07:37:32.580Z,34.85
2023-05-06T07:40:03.588Z,36.33
2023-05-06T07:42:35.060Z,34.55
2023-05-06T07:45:06.679Z,34.28
2023-05-06T07:47:38.363Z,27.70
2023-05-06T07:50:10.325Z,30.95
2023-05-06T07:52:46.529Z,32.08
2023-05-06T07:55:18.648Z,27.65
2023-05-06T07:57:49.834Z,32.55
2023-05-06T08:00:23.597Z,32.65
2023-05-06T08:03:14.799Z,36.13
2023-05-06T08:05:46.406Z,32.08
2023-05-06T08:08:17.769Z,39.53
2023-05-06T08:10:49.152Z,35.15
2023-05-06T08:13:20.337Z,37.60
2023-05-06T08:15:53.330Z,32.80
2023-05-06T08:18:25.410Z,33.57
2023-05-06T08:21:16.121Z,36.38
2023-05-06T08:24:07.181Z,38.40
2023-05-06T08:26:38.376Z,42.33
2023-05-06T08:29:10.809Z,47.95
2023-05-06T08:31:42.291Z,45.42
2023-05-06T08:34:14.466Z,47.55
2023-05-06T08:36:52.148Z,56.97
2023-05-06T08:39:26.734Z,60.75
2023-05-06T08:42:01.110Z,62.53
2023-05-06T08:44:33.335Z,67.22
2023-05-06T08:47:04.661Z,65.63
2023-05-06T08:49:46.043Z,76.13
2023-05-06T08:52:18.968Z,66.70
2023-05-06T08:54:50.541Z,57.87
2023-05-06T08:57:22.017Z,51.72
2023-05-06T08:59:53.213Z,40.75
2023-05-06T09:02:24.803Z,38.13
2023-05-06T09:04:56.678Z,35.95
2023-05-06T09:07:47.774Z,36.88
2023-05-06T09:10:20.573Z,29.45
2023-05-06T09:12:52.047Z,24.53
2023-05-06T09:15:27.835Z,23.42
2023-05-06T09:17:59.201Z,21.77
2023-05-06T09:20:30.589Z,20.77
2023-05-06T09:23:03.383Z,20.92
2023-05-06T09:25:34.677Z,26.13
2023-05-06T09:28:08.726Z,17.90
2023-05-06T09:30:49.162Z,18.73
2023-05-06T09:33:20.216Z,19.48
2023-05-06T09:35:51.681Z,18.40
2023-05-06T09:38:24.511Z,16.67
2023-05-06T09:40:55.939Z,13.75
2023-05-06T09:43:28.073Z,13.63
2023-05-06T09:45:59.629Z,16.38
2023-05-06T09:48:34.164Z,16.50
2023-05-06T09:51:06.019Z,15.95
2023-05-06T09:53:40.254Z,15.90
2023-05-06T09:56:11.758Z,15.82
2023-05-06T09:59:07.018Z,12.75
2023-05-06T10:01:41.879Z,12.85
2023-05-06T10:04:17.494Z,13.00
2023-05-06T10:06:53.985Z,13.68
2023-05-06T10:09:26.804Z,13.63
2023-05-06T10:11:58.872Z,13.35
2023-05-06T10:14:34.187Z,12.50
2023-05-06T10:17:08.045Z,11.32
2023-05-06T10:20:09.305Z,14.05
2023-05-06T10:22:56.479Z,12.82
2023-05-06T10:25:38.687Z,9.60
2023-05-06T10:28:31.768Z,12.10
2023-05-06T10:31:03.852Z,12.45
2023-05-06T10:33:35.128Z,13.02
2023-05-06T10:36:15.784Z,11.80
2023-05-06T10:38:51.959Z,11.57
2023-05-06T10:41:44.294Z,10.93
2023-05-06T10:44:15.639Z,12.35
2023-05-06T10:47:01.986Z,13.50
2023-05-06T10:49:33.368Z,13.80
2023-05-06T10:52:14.304Z,13.38
2023-05-06T10:54:52.762Z,11.10
2023-05-06T10:57:29.262Z,13.10
2023-05-06T11:00:02.565Z,10.68
2023-05-06T11:02:35.058Z,14.55
2023-05-06T11:05:15.096Z,15.27
2023-05-06T11:07:46.469Z,14.00
2023-05-06T11:10:18.094Z,11.20
2023-05-06T11:12:58.312Z,9.40
2023-05-06T11:15:40.768Z,10.35
2023-05-06T11:18:37.566Z,10.50
2023-05-06T11:21:11.788Z,13.45
2023-05-06T11:24:05.831Z,9.88
2023-05-06T11:26:36.968Z,12.43
2023-05-06T11:29:09.887Z,11.45
2023-05-06T11:31:41.796Z,10.53
2023-05-06T11:34:33.504Z,9.48
2023-05-06T11:37:08.868Z,10.43
2023-05-06T11:39:41.383Z,6.97
2023-05-06T11:42:13.635Z,7.72
2023-05-06T11:44:44.956Z,11.50
2023-05-06T11:47:39.144Z,8.45
2023-05-06T11:50:13.591Z,7.53
2023-05-06T11:52:44.746Z,9.85
2023-05-06T11:55:17.376Z,6.57
2023-05-06T11:57:52.980Z,9.50
2023-05-06T12:00:26.164Z,7.10
2023-05-06T12:03:17.372Z,9.05
2023-05-06T12:05:54.097Z,20.80
2023-05-06T12:08:28.754Z,7.93
2023-05-06T12:11:09.107Z,9.13
2023-05-06T12:13:45.072Z,6.70
2023-05-06T12:16:17.441Z,8.50
2023-05-06T12:21:35.213Z,6.40
2023-05-06T12:24:06.617Z,9.07
2023-05-06T12:27:03.937Z,8.90
2023-05-06T12:29:35.230Z,9.90
2023-05-06T12:32:12.993Z,10.20
2023-05-06T12:34:46.787Z,6.32
2023-05-06T12:37:30.794Z,7.72
2023-05-06T12:40:13.616Z,8.27
2023-05-06T12:42:45.106Z,6.80
2023-05-06T12:45:19.193Z,7.63
2023-05-06T12:48:06.858Z,7.30
2023-05-06T12:50:38.430Z,6.38
2023-05-06T12:53:23.823Z,6.25
2023-05-06T12:55:56.951Z,8.43
2023-05-06T12:58:27.982Z,8.48
2023-05-06T13:00:59.056Z,7.15
2023-05-06T13:03:30.591Z,9.20
2023-05-06T13:06:04.120Z,9.07
2023-05-06T13:08:37.664Z,8.43
2023-05-06T13:11:09.865Z,6.20
2023-05-06T13:13:42.397Z,6.90
2023-05-06T13:16:19.210Z,7.75
2023-05-06T13:18:56.094Z,10.20
2023-05-06T13:21:28.602Z,7.72
2023-05-06T13:23:59.754Z,8.38
2023-05-06T13:26:33.189Z,8.73
2023-05-06T13:29:06.043Z,8.88
2023-05-06T13:31:37.291Z,6.97
2023-05-06T13:34:08.739Z,6.53
2023-05-06T13:36:41.455Z,7.23
2023-05-06T13:42:00.384Z,6.63
2023-05-06T13:44:32.217Z,6.97
2023-05-06T13:47:05.196Z,8.20
2023-05-06T13:49:39.498Z,6.93
2023-05-06T13:52:30.438Z,7.03
2023-05-06T13:55:04.683Z,7.28
2023-05-06T13:57:56.963Z,9.02
2023-05-06T14:00:28.486Z,8.30
2023-05-06T14:03:00.978Z,8.98
2023-05-06T14:05:32.155Z,8.23
2023-05-06T14:08:03.676Z,8.38
2023-05-06T14:10:35.129Z,7.22
2023-05-06T14:13:07.230Z,8.70
2023-05-06T14:15:38.559Z,9.63
2023-05-06T14:18:09.959Z,6.78
2023-05-06T14:20:41.343Z,9.05
2023-05-06T14:23:12.941Z,11.07
2023-05-06T14:28:27.957Z,7.72
2023-05-06T14:31:26.437Z,8.10
2023-05-06T14:33:58.152Z,8.65
2023-05-06T14:36:29.553Z,8.43
2023-05-06T14:39:01.043Z,7.90
2023-05-06T14:44:05.094Z,7.80
2023-05-06T14:46:36.488Z,7.38
2023-05-06T14:49:09.179Z,6.93
2023-05-06T14:51:51.013Z,8.60
2023-05-06T14:54:26.032Z,6.75
2023-05-06T14:57:04.939Z,8.15
2023-05-06T14:59:36.271Z,8.60
2023-05-06T15:02:07.683Z,6.78
2023-05-06T15:05:04.068Z,6.80
2023-05-06T15:07:35.854Z,8.13
2023-05-06T15:10:07.354Z,7.13
2023-05-06T15:12:38.988Z,7.65
2023-05-06T15:15:12.273Z,8.88
2023-05-06T15:17:45.134Z,7.70
2023-05-06T15:20:16.636Z,7.70
2023-05-06T15:22:48.755Z,7.68
2023-05-06T15:25:40.663Z,7.65
2023-05-06T15:28:12.177Z,6.45
2023-05-06T15:30:43.812Z,6.50
2023-05-06T15:33:18.236Z,6.93
2023-05-06T15:35:49.538Z,9.02
2023-05-06T15:38:25.774Z,6.75
2023-05-06T15:41:04.005Z,6.90
2023-05-06T15:43:37.698Z,10.98
2023-05-06T15:46:10.845Z,6.65
2023-05-06T15:48:45.702Z,7.30
2023-05-06T15:51:38.260Z,7.22
2023-05-06T15:54:10.603Z,8.27
2023-05-06T15:56:42.387Z,7.82
2023-05-06T15:59:14.400Z,7.82
2023-05-06T16:04:45.404Z,7.07
2023-05-06T16:07:17.113Z,8.25
2023-05-06T16:09:48.580Z,6.38
2023-05-06T16:12:22.691Z,6.63
2023-05-06T16:14:55.347Z,6.43
2023-05-06T16:17:29.606Z,8.32
2023-05-06T16:20:00.699Z,6.68
2023-05-06T16:22:34.769Z,7.60
2023-05-06T16:25:47.674Z,7.65
2023-05-06T16:28:18.804Z,6.85
2023-05-06T16:31:10.751Z,9.38
2023-05-06T16:33:42.233Z,7.65
2023-05-06T16:36:14.493Z,7.75
2023-05-06T16:38:46.423Z,8.05
2023-05-06T16:41:18.158Z,7.70
2023-05-06T16:43:49.636Z,6.97
2023-05-06T16:46:22.065Z,6.95
2023-05-06T16:48:57.908Z,7.78
2023-05-06T16:54:22.830Z,7.60
2023-05-06T16:56:54.003Z,6.57
2023-05-06T16:59:25.586Z,9.07
2023-05-06T17:01:56.700Z,8.05
2023-05-06T17:04:34.905Z,7.53
2023-05-06T17:07:06.288Z,7.55
2023-05-06T17:10:04.110Z,8.05
2023-05-06T17:12:55.141Z,9.65
2023-05-06T17:15:27.858Z,7.07
2023-05-06T17:18:07.517Z,7.97
2023-05-06T17:21:01.721Z,8.60
2023-05-06T17:23:33.112Z,7.43
2023-05-06T17:26:08.416Z,6.45
2023-05-06T17:28:41.027Z,7.15
2023-05-06T17:31:12.414Z,9.38
2023-05-06T17:33:43.849Z,8.02
2023-05-06T17:36:17.518Z,8.65
2023-05-06T17:38:48.777Z,9.30
2023-05-06T17:41:41.887Z,9.30
2023-05-06T17:44:13.504Z,10.90
2023-05-06T17:47:04.451Z,9.65
2023-05-06T17:49:36.103Z,7.15
2023-05-06T17:52:08.405Z,8.80
2023-05-06T17:54:41.409Z,8.27
2023-05-06T17:57:13.029Z,7.20
2023-05-06T18:00:07.166Z,7.63
2023-05-06T18:02:42.970Z,7.78
2023-05-06T18:05:35.367Z,12.52
2023-05-06T18:08:07.160Z,8.35
2023-05-06T18:10:41.092Z,8.63
2023-05-06T18:13:13.195Z,8.90
2023-05-06T18:15:44.652Z,9.65
2023-05-06T18:18:16.019Z,8.10
2023-05-06T18:20:47.146Z,9.70
2023-05-06T18:23:22.105Z,9.40
2023-05-06T18:25:54.115Z,8.18
2023-05-06T18:28:25.697Z,8.68
2023-05-06T18:30:56.932Z,8.07
2023-05-06T18:33:27.966Z,8.27
2023-05-06T18:35:59.342Z,8.25
2023-05-06T18:38:30.407Z,7.78
2023-05-06T18:41:01.633Z,9.48
2023-05-06T18:43:32.996Z,9.40
2023-05-06T18:46:06.590Z,7.80
2023-05-06T18:48:38.000Z,11.50
2023-05-06T18:51:13.025Z,10.07
2023-05-06T18:53:44.600Z,9.68
2023-05-06T18:56:16.212Z,9.50
2023-05-06T18:58:47.630Z,11.15
2023-05-06T19:01:18.880Z,8.00
2023-05-06T19:03:49.958Z,8.02
2023-05-06T19:06:20.999Z,7.93
2023-05-06T19:08:52.401Z,9.75
2023-05-06T19:11:23.855Z,9.63
2023-05-06T19:13:56.209Z,10.63
2023-05-06T19:16:28.490Z,9.35
2023-05-06T19:18:59.905Z,8.27
2023-05-06T19:21:31.527Z,7.90
2023-05-06T19:24:03.255Z,8.73
2023-05-06T19:26:34.512Z,10.13
2023-05-06T19:29:05.537Z,7.80
2023-05-06T19:31:36.809Z,10.25
2023-05-06T19:34:08.327Z,9.23
2023-05-06T19:36:39.574Z,8.07
2023-05-06T19:39:10.848Z,8.48
2023-05-06T19:41:42.263Z,9.75
2023-05-06T19:44:13.505Z,7.88
2023-05-06T19:46:44.817Z,8.07
2023-05-06T19:49:19.277Z,8.73
2023-05-06T19:51:50.597Z,9.77
2023-05-06T19:54:21.724Z,8.00
2023-05-06T19:56:53.033Z,8.18
2023-05-06T19:59:24.296Z,8.68
2023-05-06T20:01:56.488Z,11.38
2023-05-06T20:04:27.989Z,9.18
2023-05-06T20:06:59.678Z,8.95
2023-05-06T20:09:30.704Z,9.25
2023-05-06T20:12:01.856Z,9.43
2023-05-06T20:14:33.440Z,10.75
2023-05-06T20:17:04.496Z,10.55
2023-05-06T20:19:35.517Z,8.45
2023-05-06T20:22:06.972Z,13.00
2023-05-06T20:24:38.186Z,13.95
2023-05-06T20:27:09.221Z,11.43
2023-05-06T20:29:40.224Z,13.70
2023-05-06T20:32:11.848Z,12.02
2023-05-06T20:34:43.167Z,11.90
2023-05-06T20:37:14.537Z,12.57
2023-05-06T20:39:45.769Z,20.20
2023-05-06T20:42:16.879Z,16.38
2023-05-06T20:44:48.043Z,14.55
2023-05-06T20:47:19.677Z,15.05
2023-05-06T20:49:50.937Z,13.88
2023-05-06T20:52:23.397Z,14.80
2023-05-06T20:54:54.552Z,14.90
2023-05-06T20:57:25.677Z,9.15
2023-05-06T20:59:57.832Z,14.15
2023-05-06T21:02:32.078Z,14.23
2023-05-06T21:05:04.162Z,14.43
2023-05-06T21:07:35.495Z,15.85
2023-05-06T21:10:07.673Z,16.13
2023-05-06T21:12:39.020Z,16.23
2023-05-06T21:15:10.806Z,15.85
2023-05-06T21:17:42.577Z,15.25
2023-05-06T21:20:14.225Z,15.68
2023-05-06T21:22:45.312Z,14.93
2023-05-06T21:25:16.272Z,14.38
2023-05-06T21:27:47.363Z,13.88
2023-05-06T21:30:18.861Z,17.08
2023-05-06T21:32:49.892Z,13.63
2023-05-06T21:35:21.257Z,14.43
2023-05-06T21:37:52.980Z,16.13
2023-05-06T21:40:24.490Z,13.50
2023-05-06T21:42:55.996Z,12.75
2023-05-06T21:45:28.175Z,12.20
2023-05-06T21:47:59.591Z,16.35
2023-05-06T21:50:30.850Z,10.82
2023-05-06T21:53:01.996Z,11.93
2023-05-06T21:55:33.421Z,11.65
2023-05-06T21:58:04.745Z,16.95
2023-05-06T22:00:36.100Z,12.90
2023-05-06T22:03:07.607Z,14.35
2023-05-06T22:05:39.031Z,12.77
2023-05-06T22:08:10.284Z,13.80
2023-05-06T22:10:41.405Z,12.15
2023-05-06T22:13:12.881Z,13.30
2023-05-06T22:15:44.768Z,17.02
2023-05-06T22:18:17.027Z,12.43
2023-05-06T22:20:50.887Z,13.32
2023-05-06T22:25:54.568Z,13.65
2023-05-06T22:28:25.738Z,16.50
2023-05-06T22:31:01.144Z,15.65
2023-05-06T22:33:38.311Z,276.27
2023-05-06T22:36:11.687Z,459.30
2023-05-06T22:38:43.012Z,295.95
2023-05-06T22:41:14.246Z,312.35
2023-05-06T22:43:45.532Z,104.72
2023-05-06T22:46:17.192Z,540.88
2023-05-06T22:48:48.428Z,141.68
2023-05-06T22:51:19.696Z,28.70
2023-05-06T22:53:50.798Z,80.65
2023-05-06T22:56:26.196Z,36.85
2023-05-06T22:58:57.663Z,14.30
2023-05-06T23:01:33.468Z,16.23
2023-05-06T23:04:05.077Z,12.80
2023-05-06T23:06:38.098Z,10.73
2023-05-06T23:09:09.400Z,11.47
2023-05-06T23:11:40.402Z,20.20
2023-05-06T23:14:11.674Z,12.48
2023-05-06T23:16:43.361Z,9.77
2023-05-06T23:19:14.883Z,10.32
2023-05-06T23:21:46.006Z,11.40
2023-05-06T23:24:16.989Z,10.00
2023-05-06T23:26:51.421Z,9.40
2023-05-06T23:29:22.758Z,11.63
2023-05-06T23:31:53.867Z,10.82
2023-05-06T23:34:25.054Z,11.15
2023-05-06T23:36:56.348Z,10.20
2023-05-06T23:39:27.418Z,10.13
2023-05-06T23:42:02.205Z,50.03
2023-05-06T23:44:33.293Z,12.65
2023-05-06T23:47:04.361Z,10.07
2023-05-06T23:49:35.357Z,86.38
2023-05-06T23:52:06.686Z,10.05
2023-05-06T23:54:38.166Z,15.73
2023-05-06T23:57:09.321Z,12.93
2023-05-06T23:59:40.985Z,25.42
